TimeCST,TemperatureF,Dew PointF,Humidity,Sea Level PressureIn,VisibilityMPH,Wind Direction,Wind SpeedMPH,Gust SpeedMPH,PrecipitationIn,Events,Conditions,WindDirDegrees,DateUTC
12:55 AM,32.0,28.4,87,30.06,10.0,Calm,Calm,-,N/A,,Overcast,0,2012-12-28 06:55:00
1:15 AM,32.0,30.2,93,30.06,10.0,Calm,Calm,-,N/A,,Overcast,0,2012-12-28 07:15:00
1:35 AM,33.8,30.2,87,30.07,10.0,Calm,Calm,-,N/A,,Overcast,0,2012-12-28 07:35:00
1:55 AM,33.8,30.2,87,30.08,10.0,Calm,Calm,-,N/A,,Overcast,0,2012-12-28 07:55:00
2:15 AM,33.8,30.2,87,30.08,10.0,Calm,Calm,-,N/A,,Overcast,0,2012-12-28 08:15:00
2:35 AM,33.8,30.2,87,30.07,10.0,East,3.5,-,N/A,,Overcast,80,2012-12-28 08:35:00
2:55 AM,33.8,30.2,87,30.07,10.0,East,3.5,-,N/A,,Overcast,90,2012-12-28 08:55:00
3:55 AM,33.8,30.2,87,30.08,7.0,ESE,4.6,-,N/A,,Overcast,110,2012-12-28 09:55:00
4:55 AM,32.0,30.2,93,30.04,5.0,ESE,4.6,-,N/A,,Overcast,110,2012-12-28 10:55:00
5:55 AM,32.0,32.0,100,30.04,4.0,ENE,3.5,-,N/A,Rain,Light Rain,70,2012-12-28 11:55:00
6:55 AM,33.8,32.0,93,30.03,3.0,ENE,3.5,-,N/A,Rain,Light Rain,60,2012-12-28 12:55:00
7:55 AM,33.8,33.8,100,30.03,4.0,ENE,3.5,-,N/A,Rain,Light Rain,60,2012-12-28 13:55:00
8:55 AM,33.8,33.8,100,30.00,4.0,East,8.1,-,N/A,Rain,Light Rain,90,2012-12-28 14:55:00
9:55 AM,35.6,35.6,100,30.00,5.0,East,4.6,-,N/A,,Overcast,80,2012-12-28 15:55:00
10:55 AM,37.4,37.4,100,29.96,4.0,ESE,8.1,-,N/A,Rain,Light Rain,110,2012-12-28 16:55:00
11:55 AM,37.4,35.6,93,29.93,4.0,ESE,3.5,-,N/A,Rain,Light Rain,110,2012-12-28 17:55:00
12:55 PM,37.4,37.4,100,29.88,4.0,Variable,3.5,-,N/A,Rain,Light Rain,0,2012-12-28 18:55:00
1:55 PM,37.4,37.4,100,29.85,5.0,East,3.5,-,N/A,Rain,Light Rain,80,2012-12-28 19:55:00
2:55 PM,37.4,37.4,100,29.81,5.0,ENE,5.8,-,N/A,Rain,Light Rain,70,2012-12-28 20:55:00
3:55 PM,37.4,37.4,100,29.78,7.0,NE,3.5,-,N/A,Rain,Light Rain,50,2012-12-28 21:55:00
4:55 PM,39.2,39.2,100,29.79,4.0,Calm,Calm,-,N/A,Rain,Light Rain,0,2012-12-28 22:55:00
5:18 PM,39.2,39.2,100,29.80,2.0,Calm,Calm,-,N/A,Rain,Light Rain,0,2012-12-28 23:18:00
5:55 PM,39.2,39.2,100,29.81,2.5,NW,6.9,-,N/A,,Overcast,310,2012-12-28 23:55:00
6:55 PM,39.2,39.2,100,29.84,2.5,NNW,4.6,-,N/A,,Overcast,330,2012-12-29 00:55:00
7:55 PM,39.2,39.2,100,29.84,6.0,West,5.8,-,N/A,,Overcast,280,2012-12-29 01:55:00
8:55 PM,35.6,35.6,100,29.86,6.0,NW,10.4,-,N/A,,Overcast,310,2012-12-29 02:55:00
9:55 PM,35.6,35.6,100,29.87,5.0,NW,6.9,-,N/A,,Overcast,320,2012-12-29 03:55:00
10:55 PM,35.6,33.8,93,29.91,6.0,WNW,8.1,-,N/A,,Overcast,290,2012-12-29 04:55:00
11:55 PM,35.6,35.6,100,29.93,6.0,WNW,15.0,-,N/A,,Overcast,300,2012-12-29 05:55:00